Time;durP1;ratioP1;P1;durP2;ratioP2;P2;SDS_P1;SDS_P2;PMS_P1;PMS_P2;Temp;Humidity;BMP_temperature;BMP_pressure;BME280_temperature;BME280_humidity;BME280_pressure;Samples;Min_cycle;Max_cycle;Signal;HPM_P1;HPM_P2
2020/12/13 00:02:21;;;;;;;3.15;2.20;;;23.00;58.40;;;;;;5079186;28;20453;-69
2020/12/13 00:04:48;;;;;;;2.10;1.70;;;23.00;58.20;;;;;;5076551;28;20023;-70
2020/12/13 00:07:16;;;;;;;2.75;1.80;;;23.10;58.10;;;;;;5078799;28;20363;-70
2020/12/13 00:09:43;;;;;;;4.65;2.67;;;23.10;58.00;;;;;;5076269;28;20789;-69
2020/12/13 00:12:10;;;;;;;2.35;1.80;;;23.10;58.00;;;;;;5076989;28;20039;-76
2020/12/13 00:14:37;;;;;;;2.63;2.15;;;23.10;58.00;;;;;;5067607;28;20040;-69
2020/12/13 00:17:04;;;;;;;2.92;2.08;;;23.20;57.90;;;;;;5077078;28;20024;-70
2020/12/13 00:19:31;;;;;;;6.22;2.85;;;23.20;57.90;;;;;;5075395;28;20067;-70
2020/12/13 00:21:58;;;;;;;3.42;2.85;;;23.20;57.80;;;;;;5077568;28;20027;-75
2020/12/13 00:24:25;;;;;;;4.65;3.17;;;23.30;57.90;;;;;;5074923;28;20028;-77
2020/12/13 00:26:53;;;;;;;3.30;3.00;;;23.30;57.90;;;;;;5077332;28;20110;-70
2020/12/13 00:29:20;;;;;;;3.72;3.40;;;23.30;57.90;;;;;;5075038;28;20119;-70
2020/12/13 00:31:50;;;;;;;4.88;3.90;;;23.40;57.90;;;;;;5073658;28;20024;-70
2020/12/13 00:34:18;;;;;;;5.78;4.15;;;23.40;57.80;;;;;;5074684;28;20480;-70
2020/12/13 00:36:48;;;;;;;4.43;3.47;;;23.40;57.80;;;;;;5075473;28;20035;-69
2020/12/13 00:39:15;;;;;;;5.10;3.75;;;23.40;57.80;;;;;;5075514;28;20056;-69
2020/12/13 00:41:48;;;;;;;4.53;3.80;;;23.50;58.40;;;;;;5074246;28;20032;-68
2020/12/13 00:44:15;;;;;;;4.43;4.03;;;23.50;57.70;;;;;;5078604;28;20054;-74
2020/12/13 00:46:42;;;;;;;3.83;3.33;;;23.50;57.60;;;;;;5078917;28;20081;-73
2020/12/13 00:49:12;;;;;;;3.90;3.50;;;23.60;57.70;;;;;;5081362;28;20024;-73
2020/12/13 00:51:39;;;;;;;4.57;3.60;;;23.60;58.30;;;;;;5078489;28;20043;-67
2020/12/13 00:54:06;;;;;;;4.10;3.42;;;23.60;57.60;;;;;;5064827;28;20036;-74
2020/12/13 00:56:34;;;;;;;5.63;3.45;;;23.70;57.60;;;;;;5079380;28;20097;-68
2020/12/13 00:59:01;;;;;;;4.65;4.05;;;23.70;57.60;;;;;;5083183;28;20235;-68
2020/12/13 01:01:28;;;;;;;5.20;3.55;;;23.80;57.60;;;;;;5082966;28;20020;-67
2020/12/13 01:03:55;;;;;;;4.00;2.95;;;23.80;57.90;;;;;;5084950;28;20111;-66
2020/12/13 01:06:26;;;;;;;3.88;3.17;;;23.90;58.20;;;;;;5086365;28;20085;-68
2020/12/13 01:08:55;;;;;;;4.07;3.25;;;24.00;58.20;;;;;;5084351;28;20035;-65
2020/12/13 01:11:24;;;;;;;3.63;3.00;;;24.10;58.20;;;;;;5083253;28;20044;-68
2020/12/13 01:13:52;;;;;;;2.95;2.40;;;24.20;58.30;;;;;;5084337;28;20027;-65
2020/12/13 01:16:20;;;;;;;4.20;2.95;;;24.20;58.10;;;;;;5084961;28;20543;-64
2020/12/13 01:18:47;;;;;;;3.25;2.70;;;24.40;58.20;;;;;;5081710;28;20059;-64
2020/12/13 01:21:19;;;;;;;2.78;2.42;;;24.40;58.00;;;;;;5083691;28;20020;-63
2020/12/13 01:23:47;;;;;;;3.28;2.47;;;24.50;58.00;;;;;;5081593;28;20028;-67
2020/12/13 01:26:16;;;;;;;3.22;2.80;;;24.60;58.00;;;;;;5084066;28;20038;-67
2020/12/13 01:28:43;;;;;;;2.80;2.08;;;24.70;57.90;;;;;;5082147;28;20657;-66
2020/12/13 01:31:17;;;;;;;3.08;2.80;;;24.70;57.70;;;;;;5083600;28;20032;-63
2020/12/13 01:33:45;;;;;;;3.85;2.80;;;24.80;57.70;;;;;;5082602;28;20036;-63
2020/12/13 01:36:13;;;;;;;4.50;2.80;;;24.90;57.70;;;;;;5080959;28;20028;-66
2020/12/13 01:38:41;;;;;;;6.57;2.25;;;25.00;56.40;;;;;;5076628;28;20096;-66
2020/12/13 01:41:08;;;;;;;3.60;3.00;;;25.00;55.60;;;;;;5080040;28;20040;-70
2020/12/13 01:43:35;;;;;;;3.15;2.85;;;24.90;55.30;;;;;;5079242;28;20020;-68
2020/12/13 01:46:03;;;;;;;3.20;2.50;;;24.90;55.00;;;;;;5079536;28;20023;-68
2020/12/13 01:48:32;;;;;;;2.72;2.30;;;24.80;54.60;;;;;;5078798;28;20071;-69
2020/12/13 01:53:34;;;;;;;2.53;2.30;;;24.80;54.70;;;;;;5079666;28;20565;-69
2020/12/13 01:56:03;;;;;;;3.75;2.40;;;25.00;54.60;;;;;;5066133;28;20036;-68
2020/12/13 01:58:36;;;;;;;2.55;2.00;;;25.00;54.40;;;;;;5078426;28;20028;-70
2020/12/13 02:01:06;;;;;;;2.13;1.90;;;25.10;54.90;;;;;;5080212;28;20028;-71
2020/12/13 02:03:41;;;;;;;2.20;2.00;;;25.20;54.10;;;;;;5077984;28;20074;-68
2020/12/13 02:06:14;;;;;;;2.42;2.22;;;25.20;54.00;;;;;;5080722;28;20036;-70
2020/12/13 02:08:42;;;;;;;2.67;2.22;;;25.30;53.70;;;;;;5056339;28;25010;-70
2020/12/13 02:11:11;;;;;;;2.40;2.00;;;25.30;53.40;;;;;;5081259;28;20555;-68
2020/12/13 02:13:39;;;;;;;2.22;1.88;;;25.40;53.20;;;;;;5079249;28;20406;-69
2020/12/13 02:16:09;;;;;;;2.30;1.90;;;25.40;53.20;;;;;;5078027;28;20319;-68
2020/12/13 02:18:36;;;;;;;2.90;2.00;;;25.50;53.20;;;;;;5079757;28;20047;-68
2020/12/13 02:21:04;;;;;;;2.17;1.88;;;25.50;53.00;;;;;;5077271;28;20024;-70
2020/12/13 02:23:31;;;;;;;2.38;1.90;;;25.60;52.90;;;;;;5079839;28;20053;-70
2020/12/13 02:25:58;;;;;;;1.80;1.70;;;25.60;52.70;;;;;;5075756;28;20020;-68
2020/12/13 02:28:25;;;;;;;1.60;1.50;;;25.70;52.60;;;;;;5079331;28;20024;-68
2020/12/13 02:30:53;;;;;;;1.83;1.60;;;25.70;52.50;;;;;;5078546;28;20525;-70
2020/12/13 02:33:20;;;;;;;3.08;2.13;;;25.80;52.40;;;;;;5088268;28;20288;-68
2020/12/13 02:35:47;;;;;;;1.63;1.35;;;25.80;52.40;;;;;;5077845;28;20256;-69
2020/12/13 02:38:14;;;;;;;2.72;2.53;;;25.90;52.20;;;;;;5059706;28;20035;-69
2020/12/13 02:40:41;;;;;;;2.83;2.15;;;25.90;51.90;;;;;;5075189;28;20028;-68
2020/12/13 02:43:08;;;;;;;1.60;1.50;;;26.00;51.80;;;;;;5077178;28;20030;-69
2020/12/13 02:45:35;;;;;;;3.40;3.17;;;26.00;51.40;;;;;;5075086;28;20229;-69
2020/12/13 02:48:02;;;;;;;1.85;1.75;;;26.00;51.20;;;;;;5078266;28;20084;-67
2020/12/13 02:50:31;;;;;;;2.65;2.30;;;26.00;50.00;;;;;;5075768;28;20032;-69
2020/12/13 02:53:01;;;;;;;4.38;1.63;;;25.80;49.10;;;;;;5079887;28;20024;-71
2020/12/13 02:55:28;;;;;;;1.98;1.73;;;25.70;48.80;;;;;;5077220;28;20036;-70
2020/12/13 02:57:55;;;;;;;1.90;1.50;;;25.60;48.40;;;;;;5080344;28;20028;-68
2020/12/13 03:00:22;;;;;;;1.92;1.63;;;25.40;48.20;;;;;;5077800;28;20032;-67
2020/12/13 03:02:49;;;;;;;2.33;1.50;;;25.40;47.70;;;;;;5075392;28;20028;-68
2020/12/13 03:05:16;;;;;;;1.88;1.20;;;25.40;47.80;;;;;;5080120;28;20562;-69
2020/12/13 03:07:43;;;;;;;2.25;1.40;;;25.30;47.80;;;;;;5076909;28;20468;-69
2020/12/13 03:10:11;;;;;;;5.15;1.70;;;25.30;47.40;;;;;;5078955;28;20040;-72
2020/12/13 03:12:38;;;;;;;1.90;1.60;;;25.20;47.50;;;;;;5076250;28;20110;-72
2020/12/13 03:15:05;;;;;;;1.35;1.10;;;25.20;47.10;;;;;;5058407;28;20180;-68
2020/12/13 03:17:32;;;;;;;1.92;1.40;;;25.20;47.30;;;;;;5074797;28;20028;-69
2020/12/13 03:19:59;;;;;;;2.38;1.13;;;25.20;47.20;;;;;;5077944;28;20114;-68
2020/12/13 03:22:26;;;;;;;1.83;1.40;;;25.20;47.10;;;;;;5075807;28;20043;-68
2020/12/13 03:24:53;;;;;;;0.93;0.90;;;25.20;46.80;;;;;;5084205;28;20025;-67
2020/12/13 03:27:24;;;;;;;2.70;1.40;;;25.20;46.60;;;;;;5075982;28;20036;-69
2020/12/13 03:29:51;;;;;;;2.17;1.30;;;25.20;46.70;;;;;;5078359;28;20024;-67
2020/12/13 03:32:19;;;;;;;1.85;1.30;;;25.20;46.50;;;;;;5075537;28;20039;-69
2020/12/13 03:34:46;;;;;;;1.17;0.80;;;25.20;46.40;;;;;;5077160;28;20035;-64
2020/12/13 03:37:13;;;;;;;1.88;1.17;;;25.10;46.00;;;;;;5076485;28;20028;-68
2020/12/13 03:39:40;;;;;;;1.40;1.10;;;25.10;46.00;;;;;;5077426;28;20555;-66
2020/12/13 03:42:07;;;;;;;3.17;1.42;;;25.10;46.10;;;;;;5059037;28;20036;-68
2020/12/13 03:44:34;;;;;;;1.10;0.93;;;25.10;46.50;;;;;;5083932;28;20105;-68
2020/12/13 03:47:01;;;;;;;26.65;8.85;;;25.10;46.40;;;;;;5079854;28;20020;-67
2020/12/13 03:49:28;;;;;;;35.58;10.95;;;25.20;46.30;;;;;;5079067;28;20174;-68
2020/12/13 03:51:55;;;;;;;32.45;9.73;;;25.20;46.30;;;;;;5064363;28;20024;-68
2020/12/13 03:54:24;;;;;;;21.27;7.72;;;25.20;46.00;;;;;;5059600;28;20046;-69
2020/12/13 03:56:51;;;;;;;22.23;6.43;;;25.20;45.90;;;;;;5084780;28;20043;-70
2020/12/13 03:59:18;;;;;;;17.67;5.70;;;25.30;46.00;;;;;;5084400;28;20020;-70
2020/12/13 04:01:45;;;;;;;17.27;5.65;;;25.30;46.10;;;;;;5067553;28;20117;-68
2020/12/13 04:04:12;;;;;;;12.80;4.18;;;25.40;46.10;;;;;;5079013;28;20050;-67
2020/12/13 04:06:39;;;;;;;16.20;4.90;;;25.30;45.80;;;;;;5079646;28;20054;-69
2020/12/13 04:09:06;;;;;;;9.20;4.03;;;25.30;46.20;;;;;;5078696;28;20028;-71
2020/12/13 04:11:33;;;;;;;11.38;3.67;;;25.30;46.00;;;;;;5082818;28;20039;-68
2020/12/13 04:14:00;;;;;;;11.60;4.32;;;25.30;45.90;;;;;;5079279;28;20024;-67
2020/12/13 04:16:30;;;;;;;14.55;4.15;;;25.30;45.80;;;;;;5077903;28;20032;-69
2020/12/13 04:18:57;;;;;;;11.55;3.92;;;25.30;45.90;;;;;;5079964;28;20424;-69
2020/12/13 04:21:26;;;;;;;10.20;3.33;;;25.30;45.80;;;;;;5085732;28;20404;-68
2020/12/13 04:23:53;;;;;;;9.43;3.50;;;25.40;45.80;;;;;;5082447;28;20038;-70
2020/12/13 04:26:20;;;;;;;9.02;3.47;;;25.30;45.50;;;;;;5081472;28;20032;-68
2020/12/13 04:28:47;;;;;;;9.15;3.22;;;25.30;46.20;;;;;;5082893;28;20055;-67
2020/12/13 04:31:14;;;;;;;8.55;3.17;;;25.30;45.30;;;;;;5062414;28;20468;-69
2020/12/13 04:33:41;;;;;;;9.65;2.88;;;25.30;45.30;;;;;;5086775;28;20035;-69
2020/12/13 04:36:08;;;;;;;10.18;3.45;;;25.20;45.10;;;;;;5079193;28;20041;-68
2020/12/13 04:38:35;;;;;;;5.60;2.55;;;25.20;45.00;;;;;;5086748;28;20024;-68
2020/12/13 04:41:03;;;;;;;7.30;2.50;;;25.20;44.90;;;;;;5083181;28;21266;-69
2020/12/13 04:43:30;;;;;;;8.57;3.25;;;25.30;44.90;;;;;;5084911;28;20024;-70
2020/12/13 04:45:58;;;;;;;5.80;2.63;;;25.20;44.60;;;;;;5060951;28;20102;-68
2020/12/13 04:48:26;;;;;;;6.57;2.75;;;25.20;44.50;;;;;;5087617;28;20267;-68
2020/12/13 04:50:55;;;;;;;4.43;2.22;;;25.20;44.40;;;;;;5085294;28;20089;-68
2020/12/13 04:53:26;;;;;;;5.22;3.13;;;25.20;44.40;;;;;;5087727;28;20500;-69
2020/12/13 04:55:56;;;;;;;5.60;2.30;;;25.20;44.20;;;;;;5084176;28;20054;-69
2020/12/13 04:58:25;;;;;;;3.75;2.03;;;25.20;44.10;;;;;;5086236;28;20474;-70
2020/12/13 05:01:02;;;;;;;4.65;2.10;;;25.20;43.90;;;;;;5085181;28;20341;-67
2020/12/13 05:03:30;;;;;;;5.00;1.83;;;25.10;43.80;;;;;;5087531;28;20425;-67
2020/12/13 05:05:58;;;;;;;4.65;2.10;;;25.20;43.80;;;;;;5084396;28;20051;-69
2020/12/13 05:08:29;;;;;;;4.90;2.22;;;25.10;43.60;;;;;;5087943;28;20032;-67
2020/12/13 05:10:57;;;;;;;5.43;2.15;;;25.20;43.60;;;;;;5084568;28;20028;-70
2020/12/13 05:13:24;;;;;;;4.75;2.72;;;25.10;43.30;;;;;;5085403;28;20043;-66
2020/12/13 05:15:51;;;;;;;4.68;1.95;;;25.10;43.20;;;;;;5082525;28;20040;-66
2020/12/13 05:18:18;;;;;;;3.45;2.00;;;25.10;43.20;;;;;;5086721;28;20055;-66
2020/12/13 05:20:45;;;;;;;3.53;1.70;;;25.10;43.10;;;;;;5082048;28;20495;-66
2020/12/13 05:23:13;;;;;;;4.43;2.38;;;25.10;43.10;;;;;;5083665;28;20073;-67
2020/12/13 05:25:40;;;;;;;4.13;1.73;;;25.10;42.90;;;;;;5085819;28;20032;-66
2020/12/13 05:28:12;;;;;;;3.67;1.77;;;25.10;42.80;;;;;;5083349;28;20038;-66
2020/12/13 05:33:13;;;;;;;2.55;1.80;;;25.10;42.60;;;;;;5083534;28;20028;-67
2020/12/13 05:35:40;;;;;;;3.20;1.35;;;25.10;42.60;;;;;;5080925;28;20042;-66
2020/12/13 05:38:15;;;;;;;3.78;1.80;;;25.10;42.60;;;;;;5083124;28;20048;-68
2020/12/13 05:40:43;;;;;;;2.63;1.67;;;25.10;42.50;;;;;;5086429;28;20032;-68
2020/12/13 05:43:17;;;;;;;3.45;2.15;;;25.10;42.30;;;;;;5079794;28;20036;-68
2020/12/13 05:51:08;;;;;;;3.10;1.45;;;25.10;42.20;;;;;;5086603;28;20031;-68
2020/12/13 05:53:37;;;;;;;3.58;1.60;;;25.10;42.20;;;;;;5084153;28;20032;-68
2020/12/13 05:56:05;;;;;;;3.80;1.88;;;25.00;42.80;;;;;;5086355;28;20140;-68
2020/12/13 05:58:32;;;;;;;3.00;1.25;;;25.10;42.00;;;;;;5081197;28;20034;-68
2020/12/13 06:01:03;;;;;;;3.13;2.03;;;25.10;42.00;;;;;;5086156;28;20070;-68
2020/12/13 06:03:39;;;;;;;2.85;1.30;;;25.00;41.90;;;;;;5081382;28;20426;-68
2020/12/13 06:06:11;;;;;;;2.28;1.42;;;25.10;42.00;;;;;;5085733;28;20031;-69
2020/12/13 06:08:56;;;;;;;3.47;1.45;;;25.00;41.80;;;;;;5082564;28;20028;-68
2020/12/13 06:11:32;;;;;;;3.80;2.00;;;25.10;41.80;;;;;;5062009;28;20028;-68
2020/12/13 06:14:06;;;;;;;3.05;1.63;;;25.00;41.70;;;;;;5082542;28;20055;-68
2020/12/13 06:16:34;;;;;;;4.88;1.55;;;25.10;41.60;;;;;;5085543;28;20036;-67
2020/12/13 06:19:03;;;;;;;2.03;1.50;;;25.00;41.60;;;;;;5082184;28;20039;-67
2020/12/13 06:21:30;;;;;;;3.08;1.20;;;25.00;41.60;;;;;;5083301;28;20038;-67
2020/12/13 06:23:58;;;;;;;2.63;1.40;;;25.00;41.50;;;;;;5081697;28;20264;-67
2020/12/13 06:26:26;;;;;;;2.17;1.40;;;25.00;41.50;;;;;;5085762;28;20118;-67
2020/12/13 06:28:54;;;;;;;1.55;1.05;;;25.00;41.60;;;;;;5077573;28;20039;-67
2020/12/13 06:31:21;;;;;;;1.65;1.10;;;25.00;41.60;;;;;;5079921;28;20029;-67
2020/12/13 06:33:48;;;;;;;2.80;1.15;;;25.00;41.40;;;;;;5082650;28;20070;-66
2020/12/13 06:36:15;;;;;;;1.63;1.17;;;25.00;41.30;;;;;;5084191;28;20024;-67
2020/12/13 06:38:43;;;;;;;3.03;1.23;;;25.10;41.40;;;;;;5083156;28;20033;-66
2020/12/13 06:41:14;;;;;;;3.05;1.15;;;25.00;41.30;;;;;;5082131;28;20024;-66
2020/12/13 06:44:05;;;;;;;2.58;1.20;;;25.10;41.30;;;;;;5083751;28;20073;-67
2020/12/13 06:46:35;;;;;;;2.80;1.15;;;25.00;41.20;;;;;;5072658;28;20082;-67
2020/12/13 06:49:02;;;;;;;2.75;1.10;;;25.10;41.20;;;;;;5082149;28;20031;-67
2020/12/13 06:51:37;;;;;;;2.47;1.30;;;25.00;41.00;;;;;;5082889;28;20055;-67
2020/12/13 06:54:12;;;;;;;2.75;1.10;;;25.00;41.00;;;;;;5084383;28;20460;-67
2020/12/13 06:56:40;;;;;;;3.10;1.42;;;25.00;41.10;;;;;;5077839;28;20476;-67
2020/12/13 06:59:09;;;;;;;2.33;1.02;;;25.00;41.00;;;;;;5067466;28;20418;-67
2020/12/13 07:01:39;;;;;;;1.73;1.55;;;25.00;41.00;;;;;;5082232;28;20484;-67
2020/12/13 07:04:27;;;;;;;2.03;0.95;;;25.10;41.20;;;;;;5085379;28;20525;-68
2020/12/13 07:06:58;;;;;;;3.13;1.35;;;25.10;41.20;;;;;;5080672;28;20066;-67
2020/12/13 07:09:26;;;;;;;3.70;1.48;;;25.10;41.30;;;;;;5081969;28;20043;-68
2020/12/13 07:11:55;;;;;;;3.10;1.15;;;25.10;41.50;;;;;;5082649;28;20064;-67
2020/12/13 07:14:25;;;;;;;2.85;1.40;;;25.10;41.40;;;;;;5067707;28;20132;-67
2020/12/13 07:17:13;;;;;;;1.70;0.93;;;25.10;41.20;;;;;;5082196;28;20042;-67
2020/12/13 07:19:40;;;;;;;1.95;0.82;;;25.10;41.40;;;;;;5083399;28;20031;-64
2020/12/13 07:22:12;;;;;;;4.60;1.10;;;25.10;41.40;;;;;;5081288;28;20046;-68
2020/12/13 07:24:40;;;;;;;2.60;1.40;;;25.10;41.80;;;;;;5084802;28;20495;-72
2020/12/13 07:27:07;;;;;;;1.17;0.93;;;25.10;42.00;;;;;;5080525;28;20067;-72
2020/12/13 07:29:35;;;;;;;2.13;1.30;;;25.20;42.10;;;;;;5082778;28;20052;-68
2020/12/13 07:32:02;;;;;;;1.40;0.90;;;25.20;42.20;;;;;;5081603;28;20032;-68
2020/12/13 07:34:30;;;;;;;3.22;1.80;;;25.20;42.30;;;;;;5088100;28;20044;-70
2020/12/13 07:36:59;;;;;;;1.48;1.13;;;25.20;42.40;;;;;;5089117;28;20025;-67
2020/12/13 07:39:29;;;;;;;2.40;1.10;;;25.20;42.50;;;;;;5062136;28;20085;-72
2020/12/13 07:41:56;;;;;;;1.52;1.17;;;25.30;42.70;;;;;;5081588;28;20035;-67
2020/12/13 07:44:23;;;;;;;2.92;1.15;;;25.20;42.50;;;;;;5083022;28;20085;-68
2020/12/13 07:46:50;;;;;;;2.33;1.05;;;25.20;42.60;;;;;;5080680;28;20061;-66
2020/12/13 07:49:22;;;;;;;2.25;0.82;;;25.20;42.60;;;;;;5084980;28;20060;-71
2020/12/13 07:51:51;;;;;;;2.30;0.88;;;25.30;42.90;;;;;;5081161;28;20924;-68
2020/12/13 07:54:26;;;;;;;1.30;0.80;;;25.30;42.90;;;;;;5084789;28;20065;-69
2020/12/13 07:57:10;;;;;;;2.50;1.00;;;25.20;42.70;;;;;;5082820;28;20848;-68
2020/12/13 07:59:38;;;;;;;1.88;1.25;;;25.20;43.50;;;;;;5084367;28;20067;-72
2020/12/13 08:02:07;;;;;;;1.70;0.85;;;25.20;42.80;;;;;;5082254;28;20020;-68
2020/12/13 08:04:39;;;;;;;5.13;1.20;;;25.20;42.80;;;;;;5081335;28;20031;-77
2020/12/13 08:07:11;;;;;;;1.35;0.80;;;25.30;42.80;;;;;;5082634;28;20032;-71
2020/12/13 08:09:41;;;;;;;2.90;1.13;;;25.20;43.40;;;;;;5081873;28;20165;-68
2020/12/13 08:12:12;;;;;;;1.65;1.27;;;25.20;42.80;;;;;;5083836;28;20412;-69
2020/12/13 08:14:39;;;;;;;2.10;1.20;;;25.30;42.90;;;;;;5082551;28;20039;-77
2020/12/13 08:17:07;;;;;;;1.40;1.00;;;25.20;42.80;;;;;;5083165;28;20020;-69
2020/12/13 08:19:37;;;;;;;1.77;0.90;;;25.30;42.90;;;;;;5081112;28;20047;-72
2020/12/13 08:22:06;;;;;;;1.73;0.93;;;25.30;42.90;;;;;;5064123;28;20186;-69
2020/12/13 08:24:33;;;;;;;2.67;0.90;;;25.30;43.00;;;;;;5080698;28;20345;-69
2020/12/13 08:27:02;;;;;;;1.70;0.98;;;25.30;43.10;;;;;;5085884;28;20024;-69
2020/12/13 08:29:32;;;;;;;4.65;1.10;;;25.30;43.10;;;;;;5062689;28;20036;-70
2020/12/13 08:32:00;;;;;;;1.88;0.95;;;25.30;43.20;;;;;;5084523;28;20051;-69
2020/12/13 08:34:29;;;;;;;0.75;0.75;;;25.30;43.60;;;;;;5055474;28;20050;-70
2020/12/13 08:37:01;;;;;;;4.10;0.80;;;25.40;44.00;;;;;;5085841;28;20096;-70
2020/12/13 08:39:34;;;;;;;2.05;1.30;;;25.40;44.30;;;;;;5082759;28;20024;-71
2020/12/13 08:42:03;;;;;;;1.02;0.85;;;25.40;44.70;;;;;;5082340;28;20032;-71
2020/12/13 08:44:35;;;;;;;2.00;1.15;;;25.40;45.00;;;;;;5081529;28;20052;-74
2020/12/13 08:47:07;;;;;;;1.58;1.00;;;25.40;45.00;;;;;;5084620;28;20428;-71
2020/12/13 08:49:39;;;;;;;1.42;0.88;;;25.40;45.20;;;;;;5081865;28;20055;-69
2020/12/13 08:52:19;;;;;;;1.13;0.98;;;25.40;45.40;;;;;;5085347;28;20320;-73
2020/12/13 08:54:50;;;;;;;2.17;0.73;;;25.40;45.60;;;;;;5078097;28;20026;-72
2020/12/13 08:57:49;;;;;;;2.15;0.77;;;25.40;46.00;;;;;;5086118;28;21980;-69
2020/12/13 09:00:17;;;;;;;1.45;1.08;;;25.40;46.60;;;;;;5018272;28;20060;-75
2020/12/13 09:02:59;;;;;;;2.00;1.00;;;25.50;46.90;;;;;;5085428;28;20038;-73
2020/12/13 09:05:33;;;;;;;0.93;0.75;;;25.50;47.40;;;;;;5087325;28;20031;-73
2020/12/13 09:08:01;;;;;;;1.20;1.10;;;25.50;47.40;;;;;;5090732;28;20036;-69
2020/12/13 09:10:37;;;;;;;6.70;1.58;;;25.50;47.70;;;;;;5089913;28;20051;-69
2020/12/13 09:13:08;;;;;;;22.45;7.13;;;25.60;48.10;;;;;;5093382;28;20495;-71
2020/12/13 09:15:35;;;;;;;35.72;10.32;;;25.50;48.20;;;;;;5079872;28;20033;-73
2020/12/13 09:18:03;;;;;;;30.85;9.48;;;25.60;48.60;;;;;;5087162;28;20028;-74
2020/12/13 09:20:32;;;;;;;30.80;10.68;;;25.60;49.00;;;;;;5080914;28;20035;-73
2020/12/13 09:23:07;;;;;;;27.17;9.85;;;25.60;49.20;;;;;;5083061;28;20063;-73
2020/12/13 09:25:43;;;;;;;34.67;11.00;;;25.60;49.30;;;;;;5081377;28;20578;-75
2020/12/13 09:28:12;;;;;;;33.63;11.05;;;25.60;49.50;;;;;;5068115;28;20032;-75
2020/12/13 09:30:40;;;;;;;32.28;11.05;;;25.60;49.80;;;;;;5081110;28;20034;-74
2020/12/13 09:33:08;;;;;;;26.25;10.07;;;25.60;49.90;;;;;;5085382;28;20024;-74
2020/12/13 09:35:35;;;;;;;29.08;10.80;;;25.60;49.90;;;;;;5094786;28;20035;-73
2020/12/13 09:38:05;;;;;;;30.05;10.38;;;25.60;50.10;;;;;;5087734;28;20028;-74
2020/12/13 09:40:32;;;;;;;29.42;10.98;;;25.60;50.30;;;;;;5088141;28;20036;-73
2020/12/13 09:43:01;;;;;;;13.00;3.85;;;25.60;50.50;;;;;;5082740;28;20028;-76
2020/12/13 09:45:29;;;;;;;15.75;4.78;;;25.60;51.50;;;;;;5092528;28;20055;-74
2020/12/13 09:47:56;;;;;;;15.20;4.72;;;25.60;52.30;;;;;;5065682;28;20412;-77
2020/12/13 09:50:24;;;;;;;13.82;4.25;;;25.50;52.50;;;;;;5089380;28;20476;-76
2020/12/13 09:52:52;;;;;;;17.42;6.30;;;25.60;52.50;;;;;;5085552;28;20044;-75
2020/12/13 09:55:19;;;;;;;12.40;5.40;;;25.70;52.30;;;;;;5083197;28;20472;-75
2020/12/13 09:57:46;;;;;;;14.55;3.35;;;25.60;52.40;;;;;;5084191;28;20040;-76
2020/12/13 10:00:14;;;;;;;11.77;3.28;;;25.40;52.50;;;;;;5087512;28;20024;-76
2020/12/13 10:02:42;;;;;;;16.65;4.82;;;25.40;52.80;;;;;;5084609;28;20032;-75
2020/12/13 10:05:22;;;;;;;8.95;2.90;;;25.30;52.90;;;;;;5087977;28;20054;-77
2020/12/13 10:10:34;;;;;;;11.30;2.83;;;25.40;52.80;;;;;;5087942;28;20043;-78
2020/12/13 10:13:02;;;;;;;8.70;2.47;;;25.40;53.20;;;;;;5084564;28;20425;-78
2020/12/13 10:15:28;;;;;;;11.13;3.00;;;25.30;53.30;;;;;;5068350;28;20526;-77
2020/12/13 10:17:55;;;;;;;6.95;2.50;;;25.10;53.90;;;;;;5083822;28;20047;-77
2020/12/13 10:20:23;;;;;;;7.32;2.28;;;25.10;54.10;;;;;;5086308;28;20048;-79
2020/12/13 10:22:50;;;;;;;10.88;2.78;;;25.10;54.20;;;;;;5082841;28;20027;-78
2020/12/13 10:25:17;;;;;;;9.65;2.67;;;24.90;54.20;;;;;;5089724;28;20692;-78
2020/12/13 10:27:44;;;;;;;6.18;2.08;;;24.90;54.50;;;;;;5085362;28;20495;-76
2020/12/13 10:30:11;;;;;;;17.33;2.65;;;24.90;54.70;;;;;;5088670;28;20111;-78
2020/12/13 10:32:38;;;;;;;13.25;2.55;;;24.60;55.30;;;;;;5086958;28;20472;-77
2020/12/13 10:35:05;;;;;;;9.55;2.53;;;24.40;55.50;;;;;;5063974;28;20040;-78
2020/12/13 10:37:32;;;;;;;6.43;1.67;;;24.50;55.70;;;;;;5087723;28;20527;-78
2020/12/13 10:39:59;;;;;;;8.32;2.28;;;24.50;55.80;;;;;;5084783;28;20142;-79
2020/12/13 10:42:26;;;;;;;8.57;2.67;;;24.40;55.70;;;;;;5090067;28;20360;-77
2020/12/13 10:44:53;;;;;;;10.18;2.30;;;24.40;55.90;;;;;;5069088;28;20110;-80
2020/12/13 10:47:21;;;;;;;12.95;2.22;;;24.40;56.00;;;;;;5088062;28;20071;-79
2020/12/13 10:49:48;;;;;;;13.07;3.17;;;24.40;56.50;;;;;;5085384;28;20560;-79
2020/12/13 10:52:15;;;;;;;10.68;2.38;;;24.00;56.50;;;;;;5071860;28;20030;-78
2020/12/13 10:54:42;;;;;;;4.47;1.77;;;24.10;57.30;;;;;;5088597;28;20346;-79
2020/12/13 10:57:12;;;;;;;7.20;2.13;;;24.10;57.20;;;;;;5088167;28;20084;-79
2020/12/13 10:59:39;;;;;;;5.45;1.92;;;24.00;57.80;;;;;;5089894;28;20028;-79
2020/12/13 11:02:06;;;;;;;7.50;2.08;;;23.80;58.10;;;;;;5087020;28;20032;-77
2020/12/13 11:04:34;;;;;;;11.35;2.13;;;23.90;58.30;;;;;;5083011;28;20039;-77
2020/12/13 11:07:04;;;;;;;9.00;2.38;;;23.90;58.30;;;;;;5089501;28;20036;-78
2020/12/13 11:09:31;;;;;;;9.00;2.17;;;23.80;58.20;;;;;;5086773;28;20507;-78
2020/12/13 11:11:58;;;;;;;6.60;2.22;;;23.60;58.70;;;;;;5084882;28;20555;-73
2020/12/13 11:14:25;;;;;;;9.35;2.90;;;23.60;59.40;;;;;;5063655;28;20063;-74
2020/12/13 11:16:55;;;;;;;8.18;2.72;;;23.60;59.20;;;;;;5062200;28;20052;-73
2020/12/13 11:19:22;;;;;;;8.18;2.50;;;23.50;59.30;;;;;;5082922;28;20032;-74
2020/12/13 11:21:49;;;;;;;13.95;2.88;;;23.50;59.50;;;;;;5078971;28;20032;-72
2020/12/13 11:24:16;;;;;;;13.00;2.58;;;23.10;60.40;;;;;;5082448;28;20030;-66
2020/12/13 11:26:47;;;;;;;12.27;2.80;;;23.00;60.70;;;;;;5078914;28;20062;-73
2020/12/13 11:29:15;;;;;;;8.38;3.00;;;22.90;61.20;;;;;;5064292;28;20476;-74
2020/12/13 11:31:42;;;;;;;15.93;3.67;;;22.80;61.70;;;;;;5080861;28;20024;-73
2020/12/13 11:34:09;;;;;;;13.73;2.88;;;22.60;62.10;;;;;;5081347;28;20028;-74
2020/12/13 11:36:36;;;;;;;10.40;2.60;;;22.70;62.30;;;;;;5078634;28;20120;-66
2020/12/13 11:39:03;;;;;;;9.02;3.08;;;22.70;62.00;;;;;;5081054;28;20020;-73
2020/12/13 11:41:30;;;;;;;17.83;2.97;;;22.60;62.20;;;;;;5080407;28;20511;-73
2020/12/13 11:43:57;;;;;;;10.82;3.05;;;22.50;62.30;;;;;;5064029;28;20425;-73
2020/12/13 11:46:24;;;;;;;8.98;2.50;;;22.40;63.10;;;;;;5079300;28;20121;-74
2020/12/13 11:48:51;;;;;;;9.88;3.50;;;22.30;63.30;;;;;;5083804;28;20041;-73
2020/12/13 11:51:18;;;;;;;11.85;3.33;;;22.10;64.10;;;;;;5081253;28;20063;-74
2020/12/13 11:53:45;;;;;;;10.43;3.63;;;22.10;64.10;;;;;;5081665;28;20093;-74
2020/12/13 11:56:18;;;;;;;14.85;4.20;;;21.70;64.40;;;;;;5080711;28;20039;-76
2020/12/13 11:58:45;;;;;;;11.30;4.40;;;21.80;65.00;;;;;;5083161;28;20088;-76
2020/12/13 12:01:12;;;;;;;16.52;3.58;;;22.00;64.70;;;;;;5063655;28;20024;-75
2020/12/13 12:03:39;;;;;;;18.90;3.97;;;21.90;64.90;;;;;;5084204;28;20363;-67
2020/12/13 12:06:11;;;;;;;12.35;3.65;;;22.20;65.00;;;;;;5071644;28;20024;-66
2020/12/13 12:08:40;;;;;;;12.95;4.22;;;22.30;64.50;;;;;;5082454;28;20406;-76
2020/12/13 12:11:07;;;;;;;12.90;3.85;;;22.20;65.00;;;;;;5085675;28;20064;-75
2020/12/13 12:13:34;;;;;;;8.85;3.05;;;22.20;64.20;;;;;;5082480;28;20081;-75
2020/12/13 12:16:01;;;;;;;11.63;3.60;;;22.10;64.40;;;;;;5088069;28;20119;-71
2020/12/13 12:18:29;;;;;;;6.53;3.15;;;22.20;64.50;;;;;;5081078;28;20069;-66
2020/12/13 12:20:57;;;;;;;8.77;3.92;;;22.20;64.10;;;;;;5086289;28;20039;-71
2020/12/13 12:23:24;;;;;;;13.70;3.80;;;22.20;64.20;;;;;;5083497;28;20454;-76
2020/12/13 12:25:51;;;;;;;12.88;3.55;;;22.20;64.20;;;;;;5085129;28;20028;-75
2020/12/13 12:28:18;;;;;;;11.77;3.88;;;22.10;64.30;;;;;;5081753;28;20077;-75
2020/12/13 12:30:45;;;;;;;9.70;3.13;;;22.10;64.50;;;;;;5082307;28;20051;-74
2020/12/13 12:33:12;;;;;;;10.95;2.92;;;22.00;64.50;;;;;;5079939;28;20024;-67
2020/12/13 12:35:42;;;;;;;7.10;2.40;;;22.00;64.60;;;;;;5083445;28;20130;-66
2020/12/13 12:38:09;;;;;;;5.20;2.33;;;22.00;64.60;;;;;;5080688;28;20071;-74
2020/12/13 12:40:36;;;;;;;9.52;2.45;;;21.70;64.80;;;;;;5084418;28;20440;-75
2020/12/13 12:43:03;;;;;;;9.82;2.97;;;21.80;65.20;;;;;;5084150;28;20036;-74
2020/12/13 12:45:30;;;;;;;9.82;2.50;;;21.80;65.00;;;;;;5085981;28;20036;-73
2020/12/13 12:47:59;;;;;;;9.57;2.65;;;21.80;65.10;;;;;;5086094;28;20031;-77
2020/12/13 12:50:26;;;;;;;4.97;2.58;;;21.80;65.10;;;;;;5084523;28;20032;-77
2020/12/13 12:52:56;;;;;;;6.75;2.03;;;21.70;65.20;;;;;;5086982;28;20051;-75
2020/12/13 12:55:23;;;;;;;12.63;2.75;;;21.70;65.40;;;;;;5082960;28;20077;-74
2020/12/13 12:57:50;;;;;;;8.85;2.00;;;21.80;65.50;;;;;;5087504;28;20034;-77
2020/12/13 13:02:59;;;;;;;7.75;2.28;;;21.70;65.50;;;;;;5084765;28;20052;-74
2020/12/13 13:05:51;;;;;;;6.93;2.83;;;21.80;65.40;;;;;;5085293;28;20020;-68
2020/12/13 13:08:32;;;;;;;6.97;2.95;;;21.80;65.20;;;;;;5086034;28;20562;-68